sensor_id;sensor_type;location;lat;lon;timestamp;pressure;altitude;pressure_sealevel;temperature;humidity
21594;BME280;10959;51.328;7.322;2023-06-24T00:01:44;73905.19;;;-147.06;48.13
21594;BME280;10959;51.328;7.322;2023-06-24T00:04:12;73909.28;;;-147.06;48.42
21594;BME280;10959;51.328;7.322;2023-06-24T00:06:40;73913.38;;;-147.06;48.26
21594;BME280;10959;51.328;7.322;2023-06-24T00:09:06;73913.38;;;-147.06;48.35
21594;BME280;10959;51.328;7.322;2023-06-24T00:11:33;73917.47;;;-147.06;48.46
21594;BME280;10959;51.328;7.322;2023-06-24T00:13:59;73925.66;;;-147.06;48.68
21594;BME280;10959;51.328;7.322;2023-06-24T00:16:26;73927.72;;;-147.06;48.69
21594;BME280;10959;51.328;7.322;2023-06-24T00:18:54;73925.66;;;-147.06;48.68
21594;BME280;10959;51.328;7.322;2023-06-24T00:21:26;73933.84;;;-147.06;48.85
21594;BME280;10959;51.328;7.322;2023-06-24T00:23:55;73931.81;;;-147.06;48.52
21594;BME280;10959;51.328;7.322;2023-06-24T00:26:22;73940.00;;;-147.06;48.63
21594;BME280;10959;51.328;7.322;2023-06-24T00:28:48;73944.09;;;-147.06;48.65
21594;BME280;10959;51.328;7.322;2023-06-24T00:31:14;73946.16;;;-147.06;48.68
21594;BME280;10959;51.328;7.322;2023-06-24T00:33:41;73946.16;;;-147.06;48.88
21594;BME280;10959;51.328;7.322;2023-06-24T00:36:09;73946.16;;;-147.06;48.89
21594;BME280;10959;51.328;7.322;2023-06-24T00:38:36;73954.34;;;-147.06;48.65
21594;BME280;10959;51.328;7.322;2023-06-24T00:41:03;73958.44;;;-147.06;48.91
21594;BME280;10959;51.328;7.322;2023-06-24T00:43:30;73954.34;;;-147.06;48.70
21594;BME280;10959;51.328;7.322;2023-06-24T00:45:57;73952.28;;;-147.06;48.75
21594;BME280;10959;51.328;7.322;2023-06-24T00:48:23;73962.53;;;-147.06;48.76
21594;BME280;10959;51.328;7.322;2023-06-24T00:50:50;73966.63;;;-147.06;48.83
21594;BME280;10959;51.328;7.322;2023-06-24T00:53:18;73970.72;;;-147.06;48.87
21594;BME280;10959;51.328;7.322;2023-06-24T00:55:50;73978.91;;;-147.06;48.97
21594;BME280;10959;51.328;7.322;2023-06-24T00:58:18;73983.03;;;-147.06;48.91
21594;BME280;10959;51.328;7.322;2023-06-24T01:00:47;73978.91;;;-147.06;48.82
21594;BME280;10959;51.328;7.322;2023-06-24T01:03:22;73995.31;;;-147.06;49.07
21594;BME280;10959;51.328;7.322;2023-06-24T01:05:50;73991.22;;;-147.06;49.19
21594;BME280;10959;51.328;7.322;2023-06-24T01:08:18;73989.16;;;-147.06;49.26
21594;BME280;10959;51.328;7.322;2023-06-24T01:10:48;73991.22;;;-147.06;48.91
21594;BME280;10959;51.328;7.322;2023-06-24T01:13:15;73989.16;;;-147.06;49.18
21594;BME280;10959;51.328;7.322;2023-06-24T01:15:42;73991.22;;;-147.06;49.17
21594;BME280;10959;51.328;7.322;2023-06-24T01:18:11;73991.22;;;-147.06;49.06
21594;BME280;10959;51.328;7.322;2023-06-24T01:20:46;73995.31;;;-147.06;48.98
21594;BME280;10959;51.328;7.322;2023-06-24T01:26:47;74040.38;;;-147.06;49.37
21594;BME280;10959;51.328;7.322;2023-06-24T01:29:31;74028.09;;;-147.06;49.15
21594;BME280;10959;51.328;7.322;2023-06-24T01:32:05;74028.09;;;-147.06;49.38
21594;BME280;10959;51.328;7.322;2023-06-24T01:34:37;74019.91;;;-147.06;49.32
21594;BME280;10959;51.328;7.322;2023-06-24T01:37:10;74011.69;;;-147.06;49.33
21594;BME280;10959;51.328;7.322;2023-06-24T01:39:44;74015.78;;;-147.06;49.42
21594;BME280;10959;51.328;7.322;2023-06-24T01:42:14;73999.41;;;-147.06;49.52
21594;BME280;10959;51.328;7.322;2023-06-24T01:44:43;74003.50;;;-147.06;49.48
21594;BME280;10959;51.328;7.322;2023-06-24T01:47:14;74015.78;;;-147.06;49.51
21594;BME280;10959;51.328;7.322;2023-06-24T01:49:43;74009.66;;;-147.06;49.55
21594;BME280;10959;51.328;7.322;2023-06-24T01:52:11;74024.00;;;-147.06;49.52
21594;BME280;10959;51.328;7.322;2023-06-24T01:54:41;74019.91;;;-147.06;49.60
21594;BME280;10959;51.328;7.322;2023-06-24T01:57:09;74015.78;;;-147.06;49.49
21594;BME280;10959;51.328;7.322;2023-06-24T01:59:40;74024.00;;;-147.06;49.62
21594;BME280;10959;51.328;7.322;2023-06-24T02:02:09;74024.00;;;-147.06;49.34
21594;BME280;10959;51.328;7.322;2023-06-24T02:04:37;74028.09;;;-147.06;49.26
21594;BME280;10959;51.328;7.322;2023-06-24T02:07:05;74028.09;;;-147.06;49.39
21594;BME280;10959;51.328;7.322;2023-06-24T02:09:33;74028.09;;;-147.06;49.21
21594;BME280;10959;51.328;7.322;2023-06-24T02:12:01;74032.19;;;-147.06;49.55
21594;BME280;10959;51.328;7.322;2023-06-24T02:14:28;74030.13;;;-147.06;49.52
21594;BME280;10959;51.328;7.322;2023-06-24T02:16:58;74036.28;;;-147.06;49.31
21594;BME280;10959;51.328;7.322;2023-06-24T02:19:29;74036.28;;;-147.06;49.51
21594;BME280;10959;51.328;7.322;2023-06-24T02:21:58;74038.34;;;-147.06;49.68
21594;BME280;10959;51.328;7.322;2023-06-24T02:24:26;74036.28;;;-147.06;49.84
21594;BME280;10959;51.328;7.322;2023-06-24T02:26:54;74040.38;;;-147.06;49.67
21594;BME280;10959;51.328;7.322;2023-06-24T02:29:22;74032.19;;;-147.06;49.50
21594;BME280;10959;51.328;7.322;2023-06-24T02:31:50;74038.34;;;-147.06;49.47
21594;BME280;10959;51.328;7.322;2023-06-24T02:34:18;74040.38;;;-147.06;49.85
21594;BME280;10959;51.328;7.322;2023-06-24T02:36:44;74044.47;;;-147.06;49.63
21594;BME280;10959;51.328;7.322;2023-06-24T02:39:12;74048.56;;;-147.06;49.57
21594;BME280;10959;51.328;7.322;2023-06-24T02:41:39;74056.78;;;-147.06;49.93
21594;BME280;10959;51.328;7.322;2023-06-24T02:44:05;74060.88;;;-147.06;49.64
21594;BME280;10959;51.328;7.322;2023-06-24T02:46:32;74056.78;;;-147.06;49.98
21594;BME280;10959;51.328;7.322;2023-06-24T02:48:59;74060.88;;;-147.06;49.73
21594;BME280;10959;51.328;7.322;2023-06-24T02:51:26;74064.97;;;-147.06;49.87
21594;BME280;10959;51.328;7.322;2023-06-24T02:53:54;74067.00;;;-147.06;49.61
21594;BME280;10959;51.328;7.322;2023-06-24T02:56:24;74064.97;;;-147.06;49.82
21594;BME280;10959;51.328;7.322;2023-06-24T02:58:53;74064.97;;;-147.06;49.85
21594;BME280;10959;51.328;7.322;2023-06-24T03:01:21;74069.06;;;-147.06;49.73
21594;BME280;10959;51.328;7.322;2023-06-24T03:03:51;74069.06;;;-147.06;49.82
21594;BME280;10959;51.328;7.322;2023-06-24T03:06:19;74071.09;;;-147.06;49.81
21594;BME280;10959;51.328;7.322;2023-06-24T03:08:46;74075.22;;;-147.06;50.12
21594;BME280;10959;51.328;7.322;2023-06-24T03:11:13;74069.06;;;-147.06;49.82
21594;BME280;10959;51.328;7.322;2023-06-24T03:13:41;74071.09;;;-147.06;49.74
21594;BME280;10959;51.328;7.322;2023-06-24T03:16:08;74081.34;;;-147.06;49.94
21594;BME280;10959;51.328;7.322;2023-06-24T03:18:37;74073.16;;;-147.06;49.79
21594;BME280;10959;51.328;7.322;2023-06-24T03:21:04;74073.16;;;-147.06;49.89
21594;BME280;10959;51.328;7.322;2023-06-24T03:23:32;74069.06;;;-147.06;49.75
21594;BME280;10959;51.328;7.322;2023-06-24T03:25:58;74069.06;;;-147.06;49.89
21594;BME280;10959;51.328;7.322;2023-06-24T03:28:24;74077.25;;;-147.06;49.88
21594;BME280;10959;51.328;7.322;2023-06-24T03:30:52;74081.34;;;-147.06;49.98
21594;BME280;10959;51.328;7.322;2023-06-24T03:33:19;74077.25;;;-147.06;49.98
21594;BME280;10959;51.328;7.322;2023-06-24T03:35:45;74085.44;;;-147.06;49.93
21594;BME280;10959;51.328;7.322;2023-06-24T03:38:12;74077.25;;;-147.06;49.61
21594;BME280;10959;51.328;7.322;2023-06-24T03:40:38;74077.25;;;-147.06;49.67
21594;BME280;10959;51.328;7.322;2023-06-24T03:43:05;74081.34;;;-147.06;49.95
21594;BME280;10959;51.328;7.322;2023-06-24T03:45:31;74081.34;;;-147.06;49.88
21594;BME280;10959;51.328;7.322;2023-06-24T03:47:59;74085.44;;;-147.06;49.71
21594;BME280;10959;51.328;7.322;2023-06-24T03:50:25;74077.25;;;-147.06;49.67
21594;BME280;10959;51.328;7.322;2023-06-24T03:52:52;74077.25;;;-147.06;49.81
21594;BME280;10959;51.328;7.322;2023-06-24T03:55:18;74077.25;;;-147.06;49.51
21594;BME280;10959;51.328;7.322;2023-06-24T03:57:45;74077.25;;;-147.06;49.82
21594;BME280;10959;51.328;7.322;2023-06-24T04:00:12;74064.97;;;-147.06;49.64
21594;BME280;10959;51.328;7.322;2023-06-24T04:02:41;74069.06;;;-147.06;49.68
21594;BME280;10959;51.328;7.322;2023-06-24T04:05:10;74064.97;;;-147.06;49.66
21594;BME280;10959;51.328;7.322;2023-06-24T04:07:36;74060.88;;;-147.06;49.82
21594;BME280;10959;51.328;7.322;2023-06-24T04:10:04;74058.81;;;-147.06;49.77
21594;BME280;10959;51.328;7.322;2023-06-24T04:12:33;74060.88;;;-147.06;49.83
21594;BME280;10959;51.328;7.322;2023-06-24T04:15:00;74060.88;;;-147.06;49.96
21594;BME280;10959;51.328;7.322;2023-06-24T04:17:28;74056.78;;;-147.06;49.71
21594;BME280;10959;51.328;7.322;2023-06-24T04:19:54;74062.91;;;-147.06;49.70
21594;BME280;10959;51.328;7.322;2023-06-24T04:22:22;74048.56;;;-147.06;49.94
21594;BME280;10959;51.328;7.322;2023-06-24T04:24:49;74046.53;;;-147.06;49.84
21594;BME280;10959;51.328;7.322;2023-06-24T04:27:15;74048.56;;;-147.06;49.68
21594;BME280;10959;51.328;7.322;2023-06-24T04:29:42;74048.56;;;-147.06;49.58
21594;BME280;10959;51.328;7.322;2023-06-24T04:32:08;74042.44;;;-147.06;49.61
21594;BME280;10959;51.328;7.322;2023-06-24T04:34:35;74044.47;;;-147.06;49.46
21594;BME280;10959;51.328;7.322;2023-06-24T04:37:01;74040.38;;;-147.06;49.58
21594;BME280;10959;51.328;7.322;2023-06-24T04:39:29;74040.38;;;-147.06;49.44
21594;BME280;10959;51.328;7.322;2023-06-24T04:41:56;74036.28;;;-147.06;49.56
21594;BME280;10959;51.328;7.322;2023-06-24T04:44:22;74030.13;;;-147.06;49.79
21594;BME280;10959;51.328;7.322;2023-06-24T04:46:48;74019.91;;;-147.06;49.42
21594;BME280;10959;51.328;7.322;2023-06-24T04:49:17;74011.69;;;-147.06;49.63
21594;BME280;10959;51.328;7.322;2023-06-24T04:51:43;74007.59;;;-147.06;49.43
21594;BME280;10959;51.328;7.322;2023-06-24T04:54:10;74007.59;;;-147.06;49.27
21594;BME280;10959;51.328;7.322;2023-06-24T04:56:39;73995.31;;;-147.06;49.35
21594;BME280;10959;51.328;7.322;2023-06-24T04:59:05;73995.31;;;-147.06;49.19
21594;BME280;10959;51.328;7.322;2023-06-24T05:01:32;73991.22;;;-147.06;48.98
21594;BME280;10959;51.328;7.322;2023-06-24T05:03:58;73987.13;;;-147.06;49.10
21594;BME280;10959;51.328;7.322;2023-06-24T05:06:25;73987.13;;;-147.06;48.89
21594;BME280;10959;51.328;7.322;2023-06-24T05:08:52;73983.03;;;-147.06;48.93
21594;BME280;10959;51.328;7.322;2023-06-24T05:11:18;73980.97;;;-147.06;48.92
21594;BME280;10959;51.328;7.322;2023-06-24T05:13:46;73974.81;;;-147.06;49.13
21594;BME280;10959;51.328;7.322;2023-06-24T05:16:12;73974.81;;;-147.06;49.03
21594;BME280;10959;51.328;7.322;2023-06-24T05:18:39;73970.72;;;-147.06;48.93
21594;BME280;10959;51.328;7.322;2023-06-24T05:21:05;73964.59;;;-147.06;49.33
21594;BME280;10959;51.328;7.322;2023-06-24T05:23:31;73956.38;;;-147.06;49.06
21594;BME280;10959;51.328;7.322;2023-06-24T05:25:58;73952.28;;;-147.06;48.75
21594;BME280;10959;51.328;7.322;2023-06-24T05:28:24;73952.28;;;-147.06;48.90
21594;BME280;10959;51.328;7.322;2023-06-24T05:30:52;73937.94;;;-147.06;48.70
21594;BME280;10959;51.328;7.322;2023-06-24T05:33:18;73929.75;;;-147.06;48.46
21594;BME280;10959;51.328;7.322;2023-06-24T05:35:45;73921.56;;;-147.06;48.49
21594;BME280;10959;51.328;7.322;2023-06-24T05:38:11;73905.19;;;-147.06;48.49
21594;BME280;10959;51.328;7.322;2023-06-24T05:40:38;73892.88;;;-147.06;48.36
21594;BME280;10959;51.328;7.322;2023-06-24T05:43:04;73884.69;;;-147.06;48.47
21594;BME280;10959;51.328;7.322;2023-06-24T05:45:30;73872.41;;;-147.06;48.10
21594;BME280;10959;51.328;7.322;2023-06-24T05:47:58;73860.09;;;-147.06;47.91
21594;BME280;10959;51.328;7.322;2023-06-24T05:50:24;73841.66;;;-147.06;48.00
21594;BME280;10959;51.328;7.322;2023-06-24T05:52:51;73823.22;;;-147.06;47.76
21594;BME280;10959;51.328;7.322;2023-06-24T05:55:17;73815.03;;;-147.06;47.82
21594;BME280;10959;51.328;7.322;2023-06-24T05:57:44;73796.59;;;-147.06;47.71
21594;BME280;10959;51.328;7.322;2023-06-24T06:00:11;73800.69;;;-147.06;47.77
21594;BME280;10959;51.328;7.322;2023-06-24T06:02:37;73790.47;;;-147.06;47.73
21594;BME280;10959;51.328;7.322;2023-06-24T06:05:06;73778.16;;;-147.06;47.87
21594;BME280;10959;51.328;7.322;2023-06-24T06:07:32;73769.97;;;-147.06;48.00
21594;BME280;10959;51.328;7.322;2023-06-24T06:10:00;73763.81;;;-147.06;48.02
21594;BME280;10959;51.328;7.322;2023-06-24T06:12:26;73774.06;;;-147.06;47.76
21594;BME280;10959;51.328;7.322;2023-06-24T06:14:52;73767.94;;;-147.06;48.06
21594;BME280;10959;51.328;7.322;2023-06-24T06:17:19;73767.94;;;-147.06;47.87
21594;BME280;10959;51.328;7.322;2023-06-24T06:19:45;73765.88;;;-147.06;47.91
21594;BME280;10959;51.328;7.322;2023-06-24T06:22:13;73753.59;;;-147.06;47.95
21594;BME280;10959;51.328;7.322;2023-06-24T06:24:40;73749.50;;;-147.06;47.92
21594;BME280;10959;51.328;7.322;2023-06-24T06:27:09;73751.53;;;-147.06;47.66
21594;BME280;10959;51.328;7.322;2023-06-24T06:29:35;73747.44;;;-147.06;47.43
21594;BME280;10959;51.328;7.322;2023-06-24T06:32:02;73749.50;;;-147.06;47.52
21594;BME280;10959;51.328;7.322;2023-06-24T06:34:28;73745.41;;;-147.06;47.89
21594;BME280;10959;51.328;7.322;2023-06-24T06:36:55;73747.44;;;-147.06;47.83
21594;BME280;10959;51.328;7.322;2023-06-24T06:39:23;73743.34;;;-147.06;47.62
21594;BME280;10959;51.328;7.322;2023-06-24T06:41:49;73743.34;;;-147.06;47.82
21594;BME280;10959;51.328;7.322;2023-06-24T06:44:15;73741.28;;;-147.06;47.87
21594;BME280;10959;51.328;7.322;2023-06-24T06:46:42;73737.19;;;-147.06;47.76
21594;BME280;10959;51.328;7.322;2023-06-24T06:49:08;73735.16;;;-147.06;47.86
21594;BME280;10959;51.328;7.322;2023-06-24T06:51:35;73726.97;;;-147.06;47.78
21594;BME280;10959;51.328;7.322;2023-06-24T06:54:01;73724.91;;;-147.06;47.75
21594;BME280;10959;51.328;7.322;2023-06-24T06:56:29;73722.84;;;-147.06;47.84
21594;BME280;10959;51.328;7.322;2023-06-24T06:58:56;73724.91;;;-147.06;47.87
21594;BME280;10959;51.328;7.322;2023-06-24T07:01:22;73716.72;;;-147.06;47.65
21594;BME280;10959;51.328;7.322;2023-06-24T07:03:49;73704.44;;;-147.06;47.43
21594;BME280;10959;51.328;7.322;2023-06-24T07:06:17;73688.03;;;-147.06;47.31
21594;BME280;10959;51.328;7.322;2023-06-24T07:08:44;73659.34;;;-147.06;47.29
21594;BME280;10959;51.328;7.322;2023-06-24T07:11:10;73634.78;;;-147.06;47.12
21594;BME280;10959;51.328;7.322;2023-06-24T07:13:38;73618.41;;;-147.06;47.23
21594;BME280;10959;51.328;7.322;2023-06-24T07:16:04;73591.75;;;-147.06;46.75
21594;BME280;10959;51.328;7.322;2023-06-24T07:18:31;73585.63;;;-147.06;46.66
21594;BME280;10959;51.328;7.322;2023-06-24T07:20:59;73556.94;;;-147.06;46.57
21594;BME280;10959;51.328;7.322;2023-06-24T07:23:26;73556.94;;;-147.06;46.46
21594;BME280;10959;51.328;7.322;2023-06-24T07:25:52;73552.84;;;-147.06;46.26
21594;BME280;10959;51.328;7.322;2023-06-24T07:28:19;73540.56;;;-147.06;46.30
21594;BME280;10959;51.328;7.322;2023-06-24T07:30:46;73540.56;;;-147.06;46.37
21594;BME280;10959;51.328;7.322;2023-06-24T07:33:13;73534.41;;;-147.06;46.23
21594;BME280;10959;51.328;7.322;2023-06-24T07:35:39;73522.13;;;-147.06;46.16
21594;BME280;10959;51.328;7.322;2023-06-24T07:38:06;73513.94;;;-147.06;46.26
21594;BME280;10959;51.328;7.322;2023-06-24T07:40:32;73489.34;;;-147.06;46.31
21594;BME280;10959;51.328;7.322;2023-06-24T07:42:59;73470.91;;;-147.06;45.62
21594;BME280;10959;51.328;7.322;2023-06-24T07:45:25;73454.53;;;-147.06;45.61
21594;BME280;10959;51.328;7.322;2023-06-24T07:47:53;73442.25;;;-147.06;45.90
21594;BME280;10959;51.328;7.322;2023-06-24T07:50:19;73413.56;;;-147.06;45.82
21594;BME280;10959;51.328;7.322;2023-06-24T07:52:46;73391.03;;;-147.06;45.43
21594;BME280;10959;51.328;7.322;2023-06-24T07:55:12;73372.59;;;-147.06;45.67
21594;BME280;10959;51.328;7.322;2023-06-24T07:57:39;73364.41;;;-147.06;45.56
21594;BME280;10959;51.328;7.322;2023-06-24T08:00:07;73345.97;;;-147.06;44.91
21594;BME280;10959;51.328;7.322;2023-06-24T08:02:36;73323.44;;;-147.06;44.68
21594;BME280;10959;51.328;7.322;2023-06-24T08:05:05;73339.81;;;-147.06;44.32
21594;BME280;10959;51.328;7.322;2023-06-24T08:07:31;73327.53;;;-147.06;44.41
21594;BME280;10959;51.328;7.322;2023-06-24T08:09:57;73311.16;;;-147.06;44.12
21594;BME280;10959;51.328;7.322;2023-06-24T08:12:24;73300.91;;;-147.06;44.20
21594;BME280;10959;51.328;7.322;2023-06-24T08:14:50;73274.28;;;-147.06;43.92
21594;BME280;10959;51.328;7.322;2023-06-24T08:17:17;73255.84;;;-147.06;43.76
21594;BME280;10959;51.328;7.322;2023-06-24T08:19:43;73233.31;;;-147.06;44.01
21594;BME280;10959;51.328;7.322;2023-06-24T08:22:11;73212.84;;;-147.06;43.67
21594;BME280;10959;51.328;7.322;2023-06-24T08:24:37;73208.75;;;-147.06;43.43
21594;BME280;10959;51.328;7.322;2023-06-24T08:27:04;73192.34;;;-147.06;43.29
21594;BME280;10959;51.328;7.322;2023-06-24T08:29:30;73192.34;;;-147.06;43.59
21594;BME280;10959;51.328;7.322;2023-06-24T08:31:57;73165.72;;;-147.06;43.49
21594;BME280;10959;51.328;7.322;2023-06-24T08:34:23;73153.44;;;-147.06;43.40
21594;BME280;10959;51.328;7.322;2023-06-24T08:36:49;73139.09;;;-147.06;42.99
21594;BME280;10959;51.328;7.322;2023-06-24T08:39:17;73126.81;;;-147.06;42.99
21594;BME280;10959;51.328;7.322;2023-06-24T08:41:44;73110.44;;;-147.06;42.66
21594;BME280;10959;51.328;7.322;2023-06-24T08:44:10;73098.13;;;-147.06;42.60
21594;BME280;10959;51.328;7.322;2023-06-24T08:46:37;73077.66;;;-147.06;42.61
21594;BME280;10959;51.328;7.322;2023-06-24T08:49:11;73075.59;;;-147.06;42.00
21594;BME280;10959;51.328;7.322;2023-06-24T08:51:42;73048.97;;;-147.06;42.27
21594;BME280;10959;51.328;7.322;2023-06-24T08:54:13;73048.97;;;-147.06;42.13
21594;BME280;10959;51.328;7.322;2023-06-24T08:56:41;73065.38;;;-147.06;42.48
21594;BME280;10959;51.328;7.322;2023-06-24T08:59:08;73094.03;;;-147.06;42.34
21594;BME280;10959;51.328;7.322;2023-06-24T09:01:35;73061.28;;;-147.06;42.43
21594;BME280;10959;51.328;7.322;2023-06-24T09:04:01;73040.78;;;-147.06;42.19
21594;BME280;10959;51.328;7.322;2023-06-24T09:06:29;73020.31;;;-147.06;42.09
21594;BME280;10959;51.328;7.322;2023-06-24T09:08:55;72987.53;;;-147.06;41.84
21594;BME280;10959;51.328;7.322;2023-06-24T09:11:22;72971.16;;;-147.06;41.64
21594;BME280;10959;51.328;7.322;2023-06-24T09:13:55;72958.88;;;-147.06;41.44
21594;BME280;10959;51.328;7.322;2023-06-24T09:16:22;72958.88;;;-147.06;41.13
21594;BME280;10959;51.328;7.322;2023-06-24T09:18:49;72940.44;;;-147.06;40.61
21594;BME280;10959;51.328;7.322;2023-06-24T09:21:21;72940.44;;;-147.06;40.89
21594;BME280;10959;51.328;7.322;2023-06-24T09:23:51;72950.69;;;-147.06;39.41
21594;BME280;10959;51.328;7.322;2023-06-24T09:26:18;72973.22;;;-147.06;40.00
21594;BME280;10959;51.328;7.322;2023-06-24T09:28:47;73032.59;;;-147.06;39.98
21594;BME280;10959;51.328;7.322;2023-06-24T09:31:15;73092.00;;;-147.06;40.03
21594;BME280;10959;51.328;7.322;2023-06-24T09:33:43;73122.72;;;-147.06;40.42
21594;BME280;10959;51.328;7.322;2023-06-24T09:36:11;73089.94;;;-147.06;40.86
21594;BME280;10959;51.328;7.322;2023-06-24T09:38:38;73034.66;;;-147.06;41.60
21594;BME280;10959;51.328;7.322;2023-06-24T09:41:06;72979.34;;;-147.06;40.71
21594;BME280;10959;51.328;7.322;2023-06-24T09:43:33;72930.19;;;-147.06;40.54
21594;BME280;10959;51.328;7.322;2023-06-24T09:46:01;72930.19;;;-147.06;39.40
21594;BME280;10959;51.328;7.322;2023-06-24T09:48:28;72928.16;;;-147.06;39.79
21594;BME280;10959;51.328;7.322;2023-06-24T09:50:58;72887.19;;;-147.06;39.77
21594;BME280;10959;51.328;7.322;2023-06-24T09:53:26;72850.31;;;-147.06;39.59
21594;BME280;10959;51.328;7.322;2023-06-24T09:55:54;72899.47;;;-147.06;38.69
21594;BME280;10959;51.328;7.322;2023-06-24T09:58:21;72889.25;;;-147.06;39.34
21594;BME280;10959;51.328;7.322;2023-06-24T10:00:49;72868.75;;;-147.06;39.29
21594;BME280;10959;51.328;7.322;2023-06-24T10:03:16;72852.38;;;-147.06;39.32
21594;BME280;10959;51.328;7.322;2023-06-24T10:05:44;72823.69;;;-147.06;39.03
21594;BME280;10959;51.328;7.322;2023-06-24T10:08:13;72790.94;;;-147.06;38.58
21594;BME280;10959;51.328;7.322;2023-06-24T10:10:40;72770.47;;;-147.06;38.50
21594;BME280;10959;51.328;7.322;2023-06-24T10:13:07;72741.78;;;-147.06;38.32
21594;BME280;10959;51.328;7.322;2023-06-24T10:15:35;72745.88;;;-147.06;37.48
21594;BME280;10959;51.328;7.322;2023-06-24T10:18:02;72725.41;;;-147.06;38.22
21594;BME280;10959;51.328;7.322;2023-06-24T10:20:29;72713.13;;;-147.06;37.57
21594;BME280;10959;51.328;7.322;2023-06-24T10:22:57;72756.13;;;-147.06;37.90
21594;BME280;10959;51.328;7.322;2023-06-24T10:25:24;72774.56;;;-147.06;37.24
21594;BME280;10959;51.328;7.322;2023-06-24T10:28:01;72749.97;;;-147.06;37.50
21594;BME280;10959;51.328;7.322;2023-06-24T10:30:29;72727.44;;;-147.06;38.02
21594;BME280;10959;51.328;7.322;2023-06-24T10:32:57;72713.13;;;-147.06;37.99
21594;BME280;10959;51.328;7.322;2023-06-24T10:35:24;72700.81;;;-147.06;36.16
21594;BME280;10959;51.328;7.322;2023-06-24T10:37:58;72684.44;;;-147.06;37.02
21594;BME280;10959;51.328;7.322;2023-06-24T10:40:35;72678.31;;;-147.06;36.99
21594;BME280;10959;51.328;7.322;2023-06-24T10:43:28;72663.97;;;-147.06;37.49
21594;BME280;10959;51.328;7.322;2023-06-24T10:45:56;72614.81;;;-147.06;37.16
21594;BME280;10959;51.328;7.322;2023-06-24T10:48:23;72594.34;;;-147.06;37.27
21594;BME280;10959;51.328;7.322;2023-06-24T10:50:50;72602.53;;;-147.06;37.15
21594;BME280;10959;51.328;7.322;2023-06-24T10:53:18;72653.72;;;-147.06;35.77
21594;BME280;10959;51.328;7.322;2023-06-24T10:55:45;72696.72;;;-147.06;36.59
21594;BME280;10959;51.328;7.322;2023-06-24T10:58:13;72749.97;;;-147.06;37.06
21594;BME280;10959;51.328;7.322;2023-06-24T11:00:40;72721.31;;;-147.06;36.73
21594;BME280;10959;51.328;7.322;2023-06-24T11:03:09;72692.63;;;-147.06;36.90
21594;BME280;10959;51.328;7.322;2023-06-24T11:05:38;72647.56;;;-147.06;36.85
21594;BME280;10959;51.328;7.322;2023-06-24T11:08:05;72623.00;;;-147.06;36.14
21594;BME280;10959;51.328;7.322;2023-06-24T11:10:33;72598.44;;;-147.06;36.10
21594;BME280;10959;51.328;7.322;2023-06-24T11:13:05;72586.16;;;-147.06;36.12
21594;BME280;10959;51.328;7.322;2023-06-24T11:15:32;72561.56;;;-147.06;35.72
21594;BME280;10959;51.328;7.322;2023-06-24T11:17:58;72549.28;;;-147.06;35.99
21594;BME280;10959;51.328;7.322;2023-06-24T11:20:28;72582.06;;;-147.06;35.62
21594;BME280;10959;51.328;7.322;2023-06-24T11:22:54;72561.56;;;-147.06;34.92
21594;BME280;10959;51.328;7.322;2023-06-24T11:25:21;72631.19;;;-147.06;32.78
21594;BME280;10959;51.328;7.322;2023-06-24T11:27:50;72606.63;;;-147.06;34.69
21594;BME280;10959;51.328;7.322;2023-06-24T11:30:18;72582.06;;;-147.06;34.57
21594;BME280;10959;51.328;7.322;2023-06-24T11:32:45;72551.34;;;-147.06;35.01
21594;BME280;10959;51.328;7.322;2023-06-24T11:35:13;72553.38;;;-147.06;34.54
21594;BME280;10959;51.328;7.322;2023-06-24T11:37:41;72561.56;;;-147.06;34.88
21594;BME280;10959;51.328;7.322;2023-06-24T11:40:09;72524.72;;;-147.06;34.80
21594;BME280;10959;51.328;7.322;2023-06-24T11:42:36;72514.47;;;-147.06;34.58
21594;BME280;10959;51.328;7.322;2023-06-24T11:45:06;72504.22;;;-147.06;34.35
21594;BME280;10959;51.328;7.322;2023-06-24T11:47:33;72584.09;;;-147.06;32.85
21594;BME280;10959;51.328;7.322;2023-06-24T11:50:01;72655.78;;;-147.06;32.95
21594;BME280;10959;51.328;7.322;2023-06-24T11:52:41;72674.19;;;-147.06;33.30
21594;BME280;10959;51.328;7.322;2023-06-24T11:55:12;72616.88;;;-147.06;34.63
21594;BME280;10959;51.328;7.322;2023-06-24T11:57:49;72588.19;;;-147.06;34.80
21594;BME280;10959;51.328;7.322;2023-06-24T12:00:19;72547.25;;;-147.06;33.72
21594;BME280;10959;51.328;7.322;2023-06-24T12:02:49;72577.94;;;-147.06;33.30
21594;BME280;10959;51.328;7.322;2023-06-24T12:05:20;72557.47;;;-147.06;34.29
21594;BME280;10959;51.328;7.322;2023-06-24T12:07:51;72516.53;;;-147.06;33.42
21594;BME280;10959;51.328;7.322;2023-06-24T12:10:17;72504.22;;;-147.06;33.40
21594;BME280;10959;51.328;7.322;2023-06-24T12:12:43;72557.47;;;-147.06;30.74
21594;BME280;10959;51.328;7.322;2023-06-24T12:15:10;72586.16;;;-147.06;31.37
21594;BME280;10959;51.328;7.322;2023-06-24T12:17:37;72594.34;;;-147.06;31.51
21594;BME280;10959;51.328;7.322;2023-06-24T12:20:05;72573.84;;;-147.06;32.68
21594;BME280;10959;51.328;7.322;2023-06-24T12:22:32;72537.00;;;-147.06;32.82
21594;BME280;10959;51.328;7.322;2023-06-24T12:24:59;72518.56;;;-147.06;33.20
21594;BME280;10959;51.328;7.322;2023-06-24T12:27:25;72510.38;;;-147.06;33.14
21594;BME280;10959;51.328;7.322;2023-06-24T12:29:52;72500.13;;;-147.06;32.51
21594;BME280;10959;51.328;7.322;2023-06-24T12:32:18;72491.94;;;-147.06;32.36
21594;BME280;10959;51.328;7.322;2023-06-24T12:34:46;72496.03;;;-147.06;31.20
21594;BME280;10959;51.328;7.322;2023-06-24T12:37:12;72549.28;;;-147.06;30.33
21594;BME280;10959;51.328;7.322;2023-06-24T12:39:39;72633.25;;;-147.06;28.65
21594;BME280;10959;51.328;7.322;2023-06-24T12:42:06;72651.69;;;-147.06;29.90
21594;BME280;10959;51.328;7.322;2023-06-24T12:44:32;72616.88;;;-147.06;31.87
21594;BME280;10959;51.328;7.322;2023-06-24T12:46:59;72610.72;;;-147.06;31.35